BAW39 ELLX-ESGG
Flight info
| Callsign | BAW39 |
|---|---|
| Flight time | 1h 30m |
| Altitude | 35000 |
| Route | DIK5X/24 DIK N853 ONUNE DCT ROBEG DCT HAM DCT BUMAB DCT ROKAM L997 RISMA |
| Aircraft | B738/M-SDE2E3FGHIRWXY/LB1 |
Departure
| Time | 2026-05-04 13:19 |
|---|---|
| Airport | Luxembourg-Findel International Airport (ELLX) |
Arrival
| Time | 2026-05-04 14:49 |
|---|---|
| Airport | Göteborg Landvetter Airport (ESGG) |
| Time | Latitude | Longitude | Altitude | Speed | Heading |
|---|---|---|---|---|---|
| 2026-05-04 13:05 | 49.63156 | 6.21645 | 1210 ft | 0 kts | 61° |
| 2026-05-04 13:10 | 49.63157 | 6.21650 | 1210 ft | 2 kts | 71° |
| 2026-05-04 13:10 | 49.63159 | 6.21694 | 1210 ft | 6 kts | 88° |
| 2026-05-04 13:10 | 49.63144 | 6.21762 | 1208 ft | 7 kts | 115° |
| 2026-05-04 13:10 | 49.63140 | 6.21841 | 1207 ft | 8 kts | 72° |
| 2026-05-04 13:11 | 49.63159 | 6.21914 | 1209 ft | 7 kts | 65° |
| 2026-05-04 13:11 | 49.63181 | 6.21985 | 1211 ft | 7 kts | 65° |
| 2026-05-04 13:11 | 49.63202 | 6.22052 | 1211 ft | 7 kts | 64° |
| 2026-05-04 13:11 | 49.63222 | 6.22118 | 1211 ft | 7 kts | 64° |
| 2026-05-04 13:12 | 49.63243 | 6.22183 | 1210 ft | 7 kts | 63° |
| 2026-05-04 13:12 | 49.63264 | 6.22246 | 1210 ft | 7 kts | 63° |
| 2026-05-04 13:12 | 49.63283 | 6.22309 | 1210 ft | 6 kts | 65° |
| 2026-05-04 13:12 | 49.63302 | 6.22370 | 1210 ft | 6 kts | 65° |
| 2026-05-04 13:13 | 49.63321 | 6.22434 | 1208 ft | 7 kts | 64° |
| 2026-05-04 13:13 | 49.63345 | 6.22508 | 1207 ft | 8 kts | 64° |
| 2026-05-04 13:13 | 49.63371 | 6.22581 | 1207 ft | 8 kts | 59° |
| 2026-05-04 13:13 | 49.63398 | 6.22650 | 1209 ft | 7 kts | 59° |
| 2026-05-04 13:14 | 49.63424 | 6.22717 | 1210 ft | 7 kts | 59° |
| 2026-05-04 13:14 | 49.63449 | 6.22782 | 1210 ft | 7 kts | 60° |
| 2026-05-04 13:14 | 49.63465 | 6.22825 | 1211 ft | 7 kts | 60° |
| 2026-05-04 13:14 | 49.63495 | 6.22909 | 1213 ft | 7 kts | 61° |
| 2026-05-04 13:15 | 49.63518 | 6.22971 | 1215 ft | 7 kts | 61° |
| 2026-05-04 13:15 | 49.63539 | 6.23032 | 1217 ft | 6 kts | 60° |
| 2026-05-04 13:15 | 49.63561 | 6.23092 | 1217 ft | 6 kts | 61° |
| 2026-05-04 13:15 | 49.63576 | 6.23133 | 1218 ft | 7 kts | 61° |
| 2026-05-04 13:16 | 49.63606 | 6.23212 | 1219 ft | 6 kts | 59° |
| 2026-05-04 13:16 | 49.63621 | 6.23251 | 1220 ft | 6 kts | 59° |
| 2026-05-04 13:16 | 49.63643 | 6.23308 | 1221 ft | 6 kts | 59° |
| 2026-05-04 13:16 | 49.63663 | 6.23370 | 1221 ft | 7 kts | 75° |
| 2026-05-04 13:17 | 49.63646 | 6.23440 | 1220 ft | 8 kts | 138° |
| 2026-05-04 13:17 | 49.63601 | 6.23484 | 1221 ft | 8 kts | 149° |
| 2026-05-04 13:17 | 49.63554 | 6.23513 | 1223 ft | 7 kts | 173° |
| 2026-05-04 13:17 | 49.63511 | 6.23480 | 1224 ft | 7 kts | 229° |
| 2026-05-04 13:18 | 49.63452 | 6.23330 | 1219 ft | 33 kts | 240° |
| 2026-05-04 13:18 | 49.63218 | 6.22697 | 1207 ft | 100 kts | 240° |
| 2026-05-04 13:18 | 49.62777 | 6.21505 | 1196 ft | 154 kts | 240° |
| 2026-05-04 13:18 | 49.62201 | 6.19915 | 1449 ft | 178 kts | 240° |
| 2026-05-04 13:19 | 49.61574 | 6.18289 | 2249 ft | 172 kts | 239° |
| 2026-05-04 13:19 | 49.60954 | 6.16690 | 3014 ft | 177 kts | 239° |
| 2026-05-04 13:19 | 49.60279 | 6.14926 | 3355 ft | 205 kts | 240° |
| 2026-05-04 13:19 | 49.59519 | 6.12920 | 3560 ft | 229 kts | 240° |
| 2026-05-04 13:20 | 49.58689 | 6.10726 | 3985 ft | 244 kts | 240° |
| 2026-05-04 13:20 | 49.57797 | 6.08360 | 4395 ft | 262 kts | 240° |
| 2026-05-04 13:20 | 49.56935 | 6.05855 | 5125 ft | 267 kts | 252° |
| 2026-05-04 13:20 | 49.56783 | 6.03020 | 5921 ft | 269 kts | 281° |
| 2026-05-04 13:21 | 49.57517 | 6.00423 | 6681 ft | 272 kts | 308° |
| 2026-05-04 13:21 | 49.59001 | 5.98556 | 7386 ft | 277 kts | 336° |
| 2026-05-04 13:21 | 49.60880 | 5.97926 | 8100 ft | 280 kts | 0° |
| 2026-05-04 13:21 | 49.62834 | 5.98196 | 8842 ft | 283 kts | 7° |
| 2026-05-04 13:22 | 49.64799 | 5.98630 | 9540 ft | 287 kts | 8° |
| 2026-05-04 13:22 | 49.66778 | 5.99099 | 10226 ft | 291 kts | 8° |
| 2026-05-04 13:22 | 49.68847 | 5.99588 | 10477 ft | 311 kts | 8° |
| 2026-05-04 13:22 | 49.71030 | 6.00096 | 10653 ft | 332 kts | 8° |
| 2026-05-04 13:23 | 49.73378 | 6.00633 | 10948 ft | 348 kts | 8° |
| 2026-05-04 13:23 | 49.75795 | 6.01178 | 11566 ft | 352 kts | 8° |
| 2026-05-04 13:23 | 49.78234 | 6.01722 | 12244 ft | 355 kts | 8° |
| 2026-05-04 13:23 | 49.80694 | 6.02267 | 12913 ft | 359 kts | 8° |
| 2026-05-04 13:24 | 49.83179 | 6.02816 | 13598 ft | 362 kts | 8° |
| 2026-05-04 13:24 | 49.85684 | 6.03368 | 14250 ft | 366 kts | 8° |
| 2026-05-04 13:24 | 49.88219 | 6.03928 | 14905 ft | 370 kts | 8° |
| 2026-05-04 13:25 | 49.93368 | 6.05064 | 16215 ft | 377 kts | 8° |
| 2026-05-04 13:25 | 49.95975 | 6.05641 | 16847 ft | 381 kts | 8° |
| 2026-05-04 13:25 | 49.98612 | 6.06225 | 17451 ft | 385 kts | 8° |
| 2026-05-04 13:25 | 50.01275 | 6.06814 | 18032 ft | 388 kts | 8° |
| 2026-05-04 13:26 | 50.03963 | 6.07411 | 18625 ft | 391 kts | 8° |
| 2026-05-04 13:26 | 50.06672 | 6.08013 | 19195 ft | 395 kts | 8° |
| 2026-05-04 13:26 | 50.09401 | 6.08619 | 19742 ft | 398 kts | 8° |
| 2026-05-04 13:26 | 50.12157 | 6.09232 | 20276 ft | 401 kts | 8° |
| 2026-05-04 13:27 | 50.14933 | 6.09851 | 20801 ft | 404 kts | 8° |
| 2026-05-04 13:27 | 50.17729 | 6.10475 | 21314 ft | 407 kts | 8° |
| 2026-05-04 13:27 | 50.20546 | 6.11104 | 21806 ft | 410 kts | 8° |
| 2026-05-04 13:27 | 50.23385 | 6.11739 | 22267 ft | 414 kts | 8° |
| 2026-05-04 13:28 | 50.26251 | 6.12381 | 22723 ft | 417 kts | 8° |
| 2026-05-04 13:28 | 50.29094 | 6.13018 | 23181 ft | 420 kts | 8° |
| 2026-05-04 13:28 | 50.32025 | 6.13700 | 23619 ft | 423 kts | 8° |
| 2026-05-04 13:28 | 50.34940 | 6.14433 | 24042 ft | 426 kts | 9° |
| 2026-05-04 13:29 | 50.37839 | 6.15183 | 24461 ft | 428 kts | 9° |
| 2026-05-04 13:29 | 50.40783 | 6.15946 | 24866 ft | 431 kts | 9° |
| 2026-05-04 13:29 | 50.43754 | 6.16712 | 25241 ft | 434 kts | 9° |
| 2026-05-04 13:29 | 50.46727 | 6.17474 | 25616 ft | 436 kts | 9° |
| 2026-05-04 13:30 | 50.49754 | 6.18247 | 25989 ft | 439 kts | 9° |
| 2026-05-04 13:30 | 50.52774 | 6.19018 | 26349 ft | 441 kts | 9° |
| 2026-05-04 13:30 | 50.55816 | 6.19796 | 26686 ft | 443 kts | 9° |
| 2026-05-04 13:30 | 50.58871 | 6.20571 | 27004 ft | 446 kts | 8° |
| 2026-05-04 13:31 | 50.61955 | 6.21335 | 27333 ft | 448 kts | 8° |
| 2026-05-04 13:31 | 50.65040 | 6.22095 | 27676 ft | 450 kts | 8° |
| 2026-05-04 13:31 | 50.68148 | 6.22890 | 28004 ft | 452 kts | 11° |
| 2026-05-04 13:31 | 50.71127 | 6.24304 | 28289 ft | 454 kts | 22° |
| 2026-05-04 13:32 | 50.73937 | 6.26584 | 28596 ft | 456 kts | 32° |
| 2026-05-04 13:32 | 50.76461 | 6.29625 | 28889 ft | 458 kts | 42° |
| 2026-05-04 13:32 | 50.78805 | 6.33061 | 29179 ft | 460 kts | 43° |
| 2026-05-04 13:32 | 50.81125 | 6.36557 | 29446 ft | 462 kts | 43° |
| 2026-05-04 13:33 | 50.83445 | 6.40056 | 29711 ft | 463 kts | 43° |
| 2026-05-04 13:33 | 50.85798 | 6.43569 | 29981 ft | 465 kts | 43° |
| 2026-05-04 13:33 | 50.88161 | 6.47065 | 30314 ft | 464 kts | 43° |
| 2026-05-04 13:33 | 50.90517 | 6.50532 | 30707 ft | 462 kts | 43° |
| 2026-05-04 13:34 | 50.92872 | 6.53991 | 31115 ft | 460 kts | 43° |
| 2026-05-04 13:34 | 50.95218 | 6.57440 | 31401 ft | 460 kts | 43° |
| 2026-05-04 13:34 | 50.97570 | 6.60904 | 31660 ft | 461 kts | 43° |
| 2026-05-04 13:34 | 50.99922 | 6.64377 | 31973 ft | 460 kts | 43° |
| 2026-05-04 13:35 | 51.02203 | 6.67824 | 32290 ft | 459 kts | 46° |
| 2026-05-04 13:35 | 51.05560 | 6.74546 | 32795 ft | 458 kts | 54° |
| 2026-05-04 13:35 | 51.07429 | 6.78649 | 33090 ft | 457 kts | 53° |
| 2026-05-04 13:36 | 51.09317 | 6.82723 | 33363 ft | 457 kts | 53° |
| 2026-05-04 13:36 | 51.11213 | 6.86754 | 33633 ft | 456 kts | 53° |
| 2026-05-04 13:36 | 51.13132 | 6.90816 | 33901 ft | 456 kts | 53° |
| 2026-05-04 13:36 | 51.15035 | 6.94846 | 34143 ft | 456 kts | 53° |
| 2026-05-04 13:37 | 51.16936 | 6.98878 | 34346 ft | 457 kts | 53° |
| 2026-05-04 13:37 | 51.18206 | 7.01577 | 34474 ft | 457 kts | 53° |
| 2026-05-04 13:37 | 51.20757 | 7.07011 | 34762 ft | 458 kts | 53° |
| 2026-05-04 13:37 | 51.22016 | 7.09701 | 34923 ft | 457 kts | 53° |
| 2026-05-04 13:38 | 51.24537 | 7.15093 | 34978 ft | 458 kts | 53° |
| 2026-05-04 13:38 | 51.28332 | 7.23231 | 35002 ft | 457 kts | 53° |
| 2026-05-04 13:39 | 51.32120 | 7.31379 | 35002 ft | 456 kts | 53° |
| 2026-05-04 13:39 | 51.35892 | 7.39516 | 35002 ft | 455 kts | 53° |
| 2026-05-04 13:40 | 51.39699 | 7.47599 | 35008 ft | 455 kts | 52° |
| 2026-05-04 13:40 | 51.43572 | 7.55592 | 35000 ft | 454 kts | 52° |
| 2026-05-04 13:41 | 51.47453 | 7.63615 | 34996 ft | 454 kts | 52° |
| 2026-05-04 13:41 | 51.51309 | 7.71646 | 34998 ft | 454 kts | 52° |
| 2026-05-04 13:42 | 51.57082 | 7.83745 | 34997 ft | 455 kts | 52° |
| 2026-05-04 13:42 | 51.60929 | 7.91841 | 35003 ft | 455 kts | 52° |
| 2026-05-04 13:43 | 51.64765 | 7.99939 | 35000 ft | 456 kts | 52° |
| 2026-05-04 13:43 | 51.68584 | 8.08026 | 35008 ft | 456 kts | 52° |
| 2026-05-04 13:44 | 51.72418 | 8.16169 | 34996 ft | 456 kts | 52° |
| 2026-05-04 13:44 | 51.76253 | 8.24341 | 35000 ft | 456 kts | 53° |
| 2026-05-04 13:45 | 51.80075 | 8.32512 | 35008 ft | 456 kts | 53° |
| 2026-05-04 13:45 | 51.83901 | 8.40717 | 35000 ft | 456 kts | 53° |
| 2026-05-04 13:46 | 51.87716 | 8.48925 | 35006 ft | 456 kts | 53° |
| 2026-05-04 13:46 | 51.91525 | 8.57146 | 34999 ft | 456 kts | 53° |
| 2026-05-04 13:47 | 51.95303 | 8.65327 | 35005 ft | 456 kts | 53° |
| 2026-05-04 13:47 | 51.99101 | 8.73576 | 35003 ft | 456 kts | 53° |
| 2026-05-04 13:48 | 52.02891 | 8.81839 | 35003 ft | 456 kts | 53° |
| 2026-05-04 13:48 | 52.06673 | 8.90105 | 34995 ft | 456 kts | 53° |
| 2026-05-04 13:49 | 52.10454 | 8.98397 | 34997 ft | 456 kts | 53° |
| 2026-05-04 13:49 | 52.14227 | 9.06699 | 35000 ft | 456 kts | 53° |
| 2026-05-04 13:50 | 52.17992 | 9.15010 | 35002 ft | 456 kts | 53° |
| 2026-05-04 13:50 | 52.21863 | 9.23195 | 34985 ft | 456 kts | 45° |
| 2026-05-04 13:51 | 52.26933 | 9.29300 | 35002 ft | 455 kts | 26° |
| 2026-05-04 13:51 | 52.32806 | 9.33112 | 35003 ft | 454 kts | 20° |
| 2026-05-04 13:52 | 52.41706 | 9.38475 | 35006 ft | 455 kts | 20° |
| 2026-05-04 13:53 | 52.47627 | 9.42143 | 34997 ft | 455 kts | 20° |
| 2026-05-04 13:53 | 52.53531 | 9.45854 | 35001 ft | 455 kts | 21° |
| 2026-05-04 13:54 | 52.62393 | 9.51457 | 35008 ft | 455 kts | 21° |
| 2026-05-04 13:55 | 52.71246 | 9.57075 | 34999 ft | 455 kts | 21° |
| 2026-05-04 13:55 | 52.80109 | 9.62722 | 35007 ft | 455 kts | 21° |
| 2026-05-04 13:56 | 52.86008 | 9.66494 | 35001 ft | 455 kts | 21° |
| 2026-05-04 13:57 | 52.94862 | 9.72177 | 35002 ft | 455 kts | 21° |
| 2026-05-04 13:58 | 53.06615 | 9.79759 | 35001 ft | 455 kts | 21° |
| 2026-05-04 13:58 | 53.15464 | 9.85497 | 35003 ft | 455 kts | 21° |
| 2026-05-04 13:59 | 53.21361 | 9.89335 | 34997 ft | 455 kts | 21° |
| 2026-05-04 14:00 | 53.30198 | 9.95108 | 34997 ft | 455 kts | 21° |
| 2026-05-04 14:00 | 53.38038 | 10.00251 | 35002 ft | 455 kts | 21° |
| 2026-05-04 14:01 | 53.43933 | 10.04131 | 35001 ft | 454 kts | 21° |
| 2026-05-04 14:02 | 53.52762 | 10.09966 | 35005 ft | 454 kts | 21° |
| 2026-05-04 14:02 | 53.58644 | 10.13868 | 35002 ft | 454 kts | 21° |
| 2026-05-04 14:03 | 53.64526 | 10.17781 | 34996 ft | 454 kts | 21° |
| 2026-05-04 14:03 | 53.70371 | 10.21690 | 35005 ft | 454 kts | 21° |
| 2026-05-04 14:04 | 53.79183 | 10.27756 | 35001 ft | 454 kts | 22° |
| 2026-05-04 14:04 | 53.85037 | 10.31813 | 34997 ft | 454 kts | 22° |
| 2026-05-04 14:05 | 53.93783 | 10.37883 | 35004 ft | 454 kts | 22° |
| 2026-05-04 14:06 | 53.99637 | 10.41957 | 34997 ft | 454 kts | 22° |
| 2026-05-04 14:06 | 54.05487 | 10.46040 | 34997 ft | 454 kts | 22° |
| 2026-05-04 14:07 | 54.11339 | 10.50139 | 35002 ft | 454 kts | 22° |
| 2026-05-04 14:07 | 54.17180 | 10.54241 | 34997 ft | 454 kts | 22° |
| 2026-05-04 14:08 | 54.23024 | 10.58359 | 35005 ft | 454 kts | 22° |
| 2026-05-04 14:08 | 54.28869 | 10.62490 | 35009 ft | 454 kts | 22° |
| 2026-05-04 14:09 | 54.37637 | 10.68711 | 35005 ft | 454 kts | 22° |
| 2026-05-04 14:10 | 54.46394 | 10.74953 | 35004 ft | 454 kts | 22° |
| 2026-05-04 14:10 | 54.52194 | 10.79104 | 35001 ft | 454 kts | 22° |
| 2026-05-04 14:11 | 54.58031 | 10.83293 | 35003 ft | 454 kts | 22° |
| 2026-05-04 14:11 | 54.66756 | 10.89680 | 35000 ft | 454 kts | 23° |
| 2026-05-04 14:12 | 54.72551 | 10.94023 | 35005 ft | 454 kts | 23° |
| 2026-05-04 14:13 | 54.81253 | 11.00555 | 35001 ft | 454 kts | 23° |
| 2026-05-04 14:13 | 54.87045 | 11.04911 | 34997 ft | 454 kts | 23° |
| 2026-05-04 14:14 | 54.92807 | 11.09255 | 35006 ft | 454 kts | 23° |
| 2026-05-04 14:14 | 55.01498 | 11.15833 | 34998 ft | 454 kts | 23° |
| 2026-05-04 14:15 | 55.13082 | 11.24651 | 34997 ft | 454 kts | 23° |
| 2026-05-04 14:16 | 55.21733 | 11.31273 | 35000 ft | 454 kts | 23° |
| 2026-05-04 14:17 | 55.30449 | 11.37976 | 34997 ft | 454 kts | 23° |
| 2026-05-04 14:18 | 55.39089 | 11.44653 | 35002 ft | 454 kts | 24° |
| 2026-05-04 14:19 | 55.50655 | 11.53642 | 35003 ft | 454 kts | 24° |
| 2026-05-04 14:19 | 55.56437 | 11.58157 | 35003 ft | 454 kts | 24° |
| 2026-05-04 14:20 | 55.62219 | 11.62687 | 35000 ft | 454 kts | 24° |
| 2026-05-04 14:20 | 55.67995 | 11.67226 | 35000 ft | 454 kts | 24° |
| 2026-05-04 14:21 | 55.76656 | 11.74062 | 34997 ft | 454 kts | 24° |
| 2026-05-04 14:21 | 55.82073 | 11.78354 | 34996 ft | 454 kts | 24° |
| 2026-05-04 14:22 | 55.87819 | 11.82920 | 35001 ft | 454 kts | 24° |
| 2026-05-04 14:22 | 55.93586 | 11.87519 | 35000 ft | 454 kts | 24° |
| 2026-05-04 14:23 | 55.99321 | 11.92108 | 34810 ft | 445 kts | 24° |
| 2026-05-04 14:23 | 56.02132 | 11.94363 | 34472 ft | 440 kts | 24° |
| 2026-05-04 14:23 | 56.04935 | 11.96614 | 34238 ft | 443 kts | 24° |
| 2026-05-04 14:24 | 56.07778 | 11.98901 | 33885 ft | 453 kts | 24° |
| 2026-05-04 14:24 | 56.10680 | 12.01240 | 33532 ft | 460 kts | 24° |
| 2026-05-04 14:24 | 56.13577 | 12.03578 | 33137 ft | 453 kts | 24° |
| 2026-05-04 14:24 | 56.16432 | 12.05888 | 32757 ft | 447 kts | 24° |
| 2026-05-04 14:25 | 56.19244 | 12.08166 | 32377 ft | 441 kts | 24° |
| 2026-05-04 14:25 | 56.24763 | 12.12645 | 31554 ft | 430 kts | 24° |
| 2026-05-04 14:25 | 56.27480 | 12.14830 | 31129 ft | 427 kts | 21° |
| 2026-05-04 14:26 | 56.30336 | 12.16341 | 30700 ft | 429 kts | 9° |
| 2026-05-04 14:26 | 56.33318 | 12.16794 | 30297 ft | 433 kts | 359° |
| 2026-05-04 14:26 | 56.36336 | 12.16339 | 29884 ft | 437 kts | 352° |
| 2026-05-04 14:26 | 56.39344 | 12.15524 | 29462 ft | 437 kts | 351° |
| 2026-05-04 14:27 | 56.42352 | 12.14666 | 29037 ft | 437 kts | 351° |
| 2026-05-04 14:27 | 56.45360 | 12.13809 | 28617 ft | 435 kts | 351° |
| 2026-05-04 14:27 | 56.48330 | 12.12979 | 28183 ft | 429 kts | 351° |
| 2026-05-04 14:27 | 56.51221 | 12.12188 | 27757 ft | 421 kts | 351° |
| 2026-05-04 14:28 | 56.54098 | 12.11413 | 27304 ft | 413 kts | 351° |
| 2026-05-04 14:28 | 56.56924 | 12.10657 | 26823 ft | 407 kts | 351° |
| 2026-05-04 14:28 | 56.59709 | 12.09915 | 26351 ft | 404 kts | 351° |
| 2026-05-04 14:28 | 56.62495 | 12.09171 | 25883 ft | 405 kts | 351° |
| 2026-05-04 14:29 | 56.68080 | 12.07678 | 24946 ft | 406 kts | 351° |
| 2026-05-04 14:29 | 56.73642 | 12.06186 | 23996 ft | 401 kts | 351° |
| 2026-05-04 14:30 | 56.76393 | 12.05445 | 23512 ft | 398 kts | 351° |
| 2026-05-04 14:30 | 56.79124 | 12.04710 | 23043 ft | 392 kts | 351° |
| 2026-05-04 14:30 | 56.84428 | 12.03277 | 22080 ft | 378 kts | 351° |
| 2026-05-04 14:31 | 56.87013 | 12.02578 | 21602 ft | 372 kts | 351° |
| 2026-05-04 14:31 | 56.92077 | 12.01204 | 20437 ft | 367 kts | 351° |
| 2026-05-04 14:32 | 56.97187 | 11.99814 | 18894 ft | 372 kts | 351° |
| 2026-05-04 14:32 | 56.99740 | 11.99119 | 18331 ft | 368 kts | 351° |
| 2026-05-04 14:32 | 57.02257 | 11.98432 | 17783 ft | 364 kts | 351° |
| 2026-05-04 14:32 | 57.04750 | 11.97796 | 17230 ft | 359 kts | 354° |
| 2026-05-04 14:33 | 57.07227 | 11.97582 | 16789 ft | 353 kts | 359° |
| 2026-05-04 14:33 | 57.09624 | 11.97600 | 16373 ft | 347 kts | 0° |
| 2026-05-04 14:33 | 57.12016 | 11.97672 | 15941 ft | 340 kts | 0° |
| 2026-05-04 14:33 | 57.14361 | 11.97736 | 15532 ft | 335 kts | 0° |
| 2026-05-04 14:34 | 57.16673 | 11.97779 | 15124 ft | 330 kts | 0° |
| 2026-05-04 14:34 | 57.18959 | 11.97801 | 14735 ft | 326 kts | 360° |
| 2026-05-04 14:34 | 57.21210 | 11.97810 | 14340 ft | 321 kts | 360° |
| 2026-05-04 14:34 | 57.23439 | 11.97811 | 13891 ft | 318 kts | 359° |
| 2026-05-04 14:35 | 57.25643 | 11.97807 | 13390 ft | 316 kts | 359° |
| 2026-05-04 14:35 | 57.27855 | 11.97800 | 12899 ft | 318 kts | 359° |
| 2026-05-04 14:35 | 57.30073 | 11.97792 | 12393 ft | 317 kts | 359° |
| 2026-05-04 14:35 | 57.32275 | 11.97783 | 11905 ft | 316 kts | 359° |
| 2026-05-04 14:36 | 57.34476 | 11.97774 | 11404 ft | 315 kts | 359° |
| 2026-05-04 14:36 | 57.36667 | 11.97765 | 10887 ft | 315 kts | 359° |
| 2026-05-04 14:36 | 57.38853 | 11.97756 | 10421 ft | 313 kts | 359° |
| 2026-05-04 14:36 | 57.40991 | 11.97747 | 9981 ft | 310 kts | 359° |
| 2026-05-04 14:37 | 57.43136 | 11.97739 | 9519 ft | 306 kts | 359° |
| 2026-05-04 14:37 | 57.45250 | 11.97730 | 9076 ft | 302 kts | 359° |
| 2026-05-04 14:37 | 57.47337 | 11.97720 | 8686 ft | 298 kts | 359° |
| 2026-05-04 14:37 | 57.49418 | 11.97711 | 8270 ft | 293 kts | 359° |
| 2026-05-04 14:38 | 57.51421 | 11.97703 | 7895 ft | 289 kts | 359° |
| 2026-05-04 14:38 | 57.53418 | 11.97696 | 7539 ft | 284 kts | 359° |
| 2026-05-04 14:38 | 57.55371 | 11.97842 | 7174 ft | 279 kts | 11° |
| 2026-05-04 14:38 | 57.57151 | 11.99190 | 6841 ft | 275 kts | 27° |
| 2026-05-04 14:39 | 57.58834 | 12.00864 | 6484 ft | 274 kts | 28° |
| 2026-05-04 14:39 | 57.60514 | 12.02535 | 6144 ft | 273 kts | 27° |
| 2026-05-04 14:39 | 57.62190 | 12.04190 | 5809 ft | 273 kts | 27° |
| 2026-05-04 14:40 | 57.65499 | 12.07442 | 5306 ft | 265 kts | 27° |
| 2026-05-04 14:40 | 57.67136 | 12.09048 | 5075 ft | 266 kts | 27° |
| 2026-05-04 14:40 | 57.68780 | 12.10660 | 4842 ft | 267 kts | 27° |
| 2026-05-04 14:40 | 57.70410 | 12.12257 | 4609 ft | 268 kts | 27° |
| 2026-05-04 14:41 | 57.72065 | 12.13885 | 4364 ft | 269 kts | 27° |
| 2026-05-04 14:41 | 57.73698 | 12.15494 | 4131 ft | 261 kts | 27° |
| 2026-05-04 14:41 | 57.76830 | 12.18574 | 3632 ft | 248 kts | 27° |
| 2026-05-04 14:42 | 57.79780 | 12.21489 | 3241 ft | 227 kts | 27° |
| 2026-05-04 14:42 | 57.81112 | 12.22808 | 3238 ft | 207 kts | 27° |
| 2026-05-04 14:42 | 57.82363 | 12.24052 | 3273 ft | 201 kts | 28° |
| 2026-05-04 14:43 | 57.83601 | 12.25291 | 3298 ft | 203 kts | 27° |
| 2026-05-04 14:43 | 57.84853 | 12.26529 | 3289 ft | 202 kts | 27° |
| 2026-05-04 14:43 | 57.86053 | 12.27774 | 3300 ft | 200 kts | 37° |
| 2026-05-04 14:43 | 57.86795 | 12.29936 | 3325 ft | 203 kts | 78° |
| 2026-05-04 14:44 | 57.86949 | 12.32614 | 3325 ft | 209 kts | 87° |
| 2026-05-04 14:44 | 57.87018 | 12.35325 | 3272 ft | 206 kts | 87° |
| 2026-05-04 14:44 | 57.86983 | 12.37995 | 3123 ft | 203 kts | 105° |
| 2026-05-04 14:44 | 57.86270 | 12.40213 | 2997 ft | 201 kts | 141° |
| 2026-05-04 14:45 | 57.85016 | 12.41299 | 2884 ft | 201 kts | 173° |
| 2026-05-04 14:45 | 57.83641 | 12.41490 | 2780 ft | 201 kts | 177° |
| 2026-05-04 14:45 | 57.82247 | 12.41633 | 2684 ft | 200 kts | 179° |
| 2026-05-04 14:45 | 57.80891 | 12.41095 | 2666 ft | 202 kts | 201° |
| 2026-05-04 14:46 | 57.79602 | 12.40088 | 2632 ft | 198 kts | 205° |
| 2026-05-04 14:46 | 57.78359 | 12.38986 | 2634 ft | 196 kts | 206° |
| 2026-05-04 14:46 | 57.77175 | 12.37906 | 2529 ft | 182 kts | 206° |
| 2026-05-04 14:46 | 57.76072 | 12.36900 | 2349 ft | 171 kts | 206° |
| 2026-05-04 14:47 | 57.75024 | 12.35945 | 2124 ft | 164 kts | 206° |
| 2026-05-04 14:47 | 57.74008 | 12.35020 | 1903 ft | 162 kts | 206° |
| 2026-05-04 14:47 | 57.72992 | 12.34095 | 1708 ft | 164 kts | 206° |
| 2026-05-04 14:47 | 57.71959 | 12.33154 | 1487 ft | 166 kts | 206° |
| 2026-05-04 14:48 | 57.71273 | 12.32530 | 1343 ft | 165 kts | 206° |
| 2026-05-04 14:48 | 57.70249 | 12.31597 | 1110 ft | 163 kts | 206° |
| 2026-05-04 14:48 | 57.69231 | 12.30669 | 905 ft | 162 kts | 206° |
| 2026-05-04 14:48 | 57.68215 | 12.29744 | 684 ft | 163 kts | 206° |
| 2026-05-04 14:49 | 57.67202 | 12.28816 | 514 ft | 160 kts | 207° |
| 2026-05-04 14:49 | 57.66105 | 12.27814 | 494 ft | 105 kts | 206° |
| 2026-05-04 14:49 | 57.65688 | 12.27432 | 487 ft | 82 kts | 206° |
| 2026-05-04 14:49 | 57.65341 | 12.27119 | 491 ft | 47 kts | 206° |
| 2026-05-04 14:50 | 57.65112 | 12.26990 | 485 ft | 32 kts | 168° |
| 2026-05-04 14:50 | 57.65040 | 12.27040 | 483 ft | 0 kts | 158° |
| 2026-05-04 14:52 | 57.65028 | 12.27053 | 482 ft | 3 kts | 142° |
| 2026-05-04 14:52 | 57.65015 | 12.27105 | 484 ft | 5 kts | 100° |
| 2026-05-04 14:52 | 57.65032 | 12.27171 | 484 ft | 6 kts | 39° |
| 2026-05-04 14:53 | 57.65072 | 12.27213 | 485 ft | 7 kts | 27° |
| 2026-05-04 14:53 | 57.65120 | 12.27256 | 482 ft | 8 kts | 25° |
| 2026-05-04 14:53 | 57.65175 | 12.27304 | 483 ft | 9 kts | 25° |
| 2026-05-04 14:53 | 57.65236 | 12.27358 | 487 ft | 10 kts | 25° |
| 2026-05-04 14:54 | 57.65300 | 12.27423 | 483 ft | 11 kts | 30° |
| 2026-05-04 14:54 | 57.65368 | 12.27490 | 489 ft | 11 kts | 27° |
| 2026-05-04 14:54 | 57.65442 | 12.27557 | 489 ft | 12 kts | 26° |
| 2026-05-04 14:54 | 57.65520 | 12.27628 | 488 ft | 12 kts | 26° |
| 2026-05-04 14:55 | 57.65596 | 12.27701 | 492 ft | 12 kts | 26° |
| 2026-05-04 14:55 | 57.65673 | 12.27771 | 490 ft | 13 kts | 26° |
| 2026-05-04 14:55 | 57.65753 | 12.27844 | 490 ft | 13 kts | 25° |
| 2026-05-04 14:55 | 57.65836 | 12.27918 | 493 ft | 14 kts | 25° |
| 2026-05-04 14:56 | 57.65920 | 12.27998 | 495 ft | 13 kts | 27° |
| 2026-05-04 14:56 | 57.66001 | 12.28072 | 492 ft | 13 kts | 26° |
| 2026-05-04 14:56 | 57.66081 | 12.28143 | 499 ft | 13 kts | 25° |
| 2026-05-04 14:56 | 57.66164 | 12.28217 | 500 ft | 14 kts | 25° |
| 2026-05-04 14:57 | 57.66248 | 12.28293 | 501 ft | 13 kts | 27° |
| 2026-05-04 14:57 | 57.66329 | 12.28370 | 502 ft | 13 kts | 27° |
| 2026-05-04 14:57 | 57.66408 | 12.28445 | 503 ft | 13 kts | 25° |
| 2026-05-04 14:57 | 57.66489 | 12.28509 | 503 ft | 13 kts | 24° |
| 2026-05-04 14:58 | 57.66568 | 12.28579 | 504 ft | 13 kts | 27° |
| 2026-05-04 14:58 | 57.66643 | 12.28661 | 505 ft | 12 kts | 40° |
| 2026-05-04 14:58 | 57.66648 | 12.28810 | 505 ft | 13 kts | 114° |
| 2026-05-04 14:58 | 57.66611 | 12.28963 | 505 ft | 13 kts | 111° |
| 2026-05-04 14:59 | 57.66620 | 12.29033 | 506 ft | 4 kts | 32° |
| 2026-05-04 14:59 | 57.66652 | 12.29051 | 506 ft | 6 kts | 18° |
| 2026-05-04 14:59 | 57.66702 | 12.29103 | 506 ft | 3 kts | 67° |
| 2026-05-04 15:00 | 57.66696 | 12.29152 | 506 ft | 5 kts | 111° |
| 2026-05-04 15:00 | 57.66680 | 12.29220 | 507 ft | 3 kts | 115° |
| 2026-05-04 15:00 | 57.66679 | 12.29224 | 507 ft | 0 kts | 115° |